America — WDE6076 — position and weather

sailwx.info

Track history (hours):
 
Tides and Currents Weather Stations Pressure Air Temp Water Temp Dewpoint Dewpoint Depression Visibility Wind Speed Wind Dir Waves Ship Positions

America

Owner: ET Yacht, LLC, San Diego, CA. More information available from US FCC via Universal Licensing System and Coast Guard Vessel Documentation Center.

Last reported at 2016-Nov-24 00:30 UTC. Time now 2016-Dec-07 20:22 UTC.
Position N 09°16' W 079°55'.
Warning: this ship's position is 13 days out of date.

Length 42 m; draft 3.5 m.

Type: Sailing vessel. MMSI: 367375550.

Date/timePositionNaut miles runAvg speedWind from/ knotsBaromVisibWave heightAir tempDewpointWater temp
2016-Nov-24 00:30N 09°16' W 079°55'1 0.6
2016-Nov-23 23:32N 09°17' W 079°55'1 1.1
2016-Nov-23 22:33N 09°18' W 079°55'4 3.8
2016-Nov-23 21:34N 09°22' W 079°55'1 0.6
2016-Nov-23 20:34N 09°22' W 079°55'2 2.2
2016-Nov-23 19:33N 09°22' W 079°57'0 0.0
2016-Nov-23 18:33N 09°22' W 079°57'0 0.0
2016-Nov-23 17:30N 09°22' W 079°57'0 0.0
2016-Nov-23 16:31N 09°22' W 079°57'0 0.0
2016-Nov-23 15:29N 09°22' W 079°57'0 0.0
2016-Nov-23 14:33N 09°22' W 079°57'0 0.0
2016-Nov-23 13:28N 09°22' W 079°57'0 0.0
2016-Nov-23 12:31N 09°22' W 079°57'0 0.0
2016-Nov-23 11:31N 09°22' W 079°57'0 0.0
2016-Nov-23 10:32N 09°22' W 079°57'0 0.0
2016-Nov-23 09:30N 09°22' W 079°57'0 0.0
2016-Nov-23 08:28N 09°22' W 079°57'0 0.0
2016-Nov-23 07:27N 09°22' W 079°57'0 0.0
2016-Nov-23 06:29N 09°22' W 079°57'0 0.0
2016-Nov-23 03:33N 09°22' W 079°57'0 0.0
2016-Nov-23 02:32N 09°22' W 079°57'0 0.0
2016-Nov-23 00:30N 09°22' W 079°57'0 0.0
2016-Nov-22 23:28N 09°22' W 079°57'0 0.0
2016-Nov-22 22:31N 09°22' W 079°57'0 0.0
2016-Nov-22 20:31N 09°22' W 079°57'0 0.0
2016-Nov-22 19:30N 09°22' W 079°57'0 0.0
2016-Nov-22 17:33N 09°22' W 079°57'0 0.0
2016-Nov-22 09:12N 09°22' W 079°57'0 0.0
2016-Nov-22 08:08N 09°22' W 079°57'0 0.0
2016-Nov-22 07:27N 09°22' W 079°57'0 0.0
2016-Nov-22 05:31N 09°22' W 079°57'0 0.0
2016-Nov-22 04:32N 09°22' W 079°57'0 0.0
2016-Nov-22 03:28N 09°22' W 079°57'0 0.0
2016-Nov-22 02:31N 09°22' W 079°57'0 0.0
2016-Nov-21 23:30N 09°22' W 079°57'0 0.0
2016-Nov-21 21:32N 09°22' W 079°57'0 0.0
2016-Nov-21 17:31N 09°22' W 079°57'0 0.0
2016-Nov-21 14:25N 09°22' W 079°57'0 0.0
2016-Nov-21 13:31N 09°22' W 079°57'0 0.0
2016-Nov-21 12:30N 09°22' W 079°57'0 0.0
2016-Nov-21 11:26N 09°22' W 079°57'0 0.0
2016-Nov-21 10:32N 09°22' W 079°57'0 0.0
2016-Nov-21 08:31N 09°22' W 079°57'0 0.0
2016-Nov-21 07:33N 09°22' W 079°57'0 0.0
2016-Nov-21 05:32N 09°22' W 079°57'0 0.0
2016-Nov-21 04:28N 09°22' W 079°57'0 0.0
2016-Nov-21 02:32N 09°22' W 079°57'4 1.9
2016-Nov-21 00:33N 09°25' W 079°55'  
Track history (hours):
 
Tides and Currents Weather Stations Pressure Air Temp Water Temp Dewpoint Dewpoint Depression Visibility Wind Speed Wind Dir Waves Ship Positions

America

Owner: ET Yacht, LLC, San Diego, CA. More information available from US FCC via Universal Licensing System and Coast Guard Vessel Documentation Center.

Last reported at 2016-Nov-24 00:30 UTC. Time now 2016-Dec-07 20:22 UTC.
Position N 09°16' W 079°55'.
Warning: this ship's position is 13 days out of date.

Length 42 m; draft 3.5 m.

Type: Sailing vessel. MMSI: 367375550.

Date/timePositionNaut miles runAvg speedWind from/ knotsBaromVisibWave heightAir tempDewpointWater temp
2016-Nov-24 00:30N 09°16' W 079°55'1 0.6
2016-Nov-23 23:32N 09°17' W 079°55'1 1.1
2016-Nov-23 22:33N 09°18' W 079°55'4 3.8
2016-Nov-23 21:34N 09°22' W 079°55'1 0.6
2016-Nov-23 20:34N 09°22' W 079°55'2 2.2
2016-Nov-23 19:33N 09°22' W 079°57'0 0.0
2016-Nov-23 18:33N 09°22' W 079°57'0 0.0
2016-Nov-23 17:30N 09°22' W 079°57'0 0.0
2016-Nov-23 16:31N 09°22' W 079°57'0 0.0
2016-Nov-23 15:29N 09°22' W 079°57'0 0.0
2016-Nov-23 14:33N 09°22' W 079°57'0 0.0
2016-Nov-23 13:28N 09°22' W 079°57'0 0.0
2016-Nov-23 12:31N 09°22' W 079°57'0 0.0
2016-Nov-23 11:31N 09°22' W 079°57'0 0.0
2016-Nov-23 10:32N 09°22' W 079°57'0 0.0
2016-Nov-23 09:30N 09°22' W 079°57'0 0.0
2016-Nov-23 08:28N 09°22' W 079°57'0 0.0
2016-Nov-23 07:27N 09°22' W 079°57'0 0.0
2016-Nov-23 06:29N 09°22' W 079°57'0 0.0
2016-Nov-23 03:33N 09°22' W 079°57'0 0.0
2016-Nov-23 02:32N 09°22' W 079°57'0 0.0
2016-Nov-23 00:30N 09°22' W 079°57'0 0.0
2016-Nov-22 23:28N 09°22' W 079°57'0 0.0
2016-Nov-22 22:31N 09°22' W 079°57'0 0.0
2016-Nov-22 20:31N 09°22' W 079°57'0 0.0
2016-Nov-22 19:30N 09°22' W 079°57'0 0.0
2016-Nov-22 17:33N 09°22' W 079°57'0 0.0
2016-Nov-22 09:12N 09°22' W 079°57'0 0.0
2016-Nov-22 08:08N 09°22' W 079°57'0 0.0
2016-Nov-22 07:27N 09°22' W 079°57'0 0.0
2016-Nov-22 05:31N 09°22' W 079°57'0 0.0
2016-Nov-22 04:32N 09°22' W 079°57'0 0.0
2016-Nov-22 03:28N 09°22' W 079°57'0 0.0
2016-Nov-22 02:31N 09°22' W 079°57'0 0.0
2016-Nov-21 23:30N 09°22' W 079°57'0 0.0
2016-Nov-21 21:32N 09°22' W 079°57'0 0.0
2016-Nov-21 17:31N 09°22' W 079°57'0 0.0
2016-Nov-21 14:25N 09°22' W 079°57'0 0.0
2016-Nov-21 13:31N 09°22' W 079°57'0 0.0
2016-Nov-21 12:30N 09°22' W 079°57'0 0.0
2016-Nov-21 11:26N 09°22' W 079°57'0 0.0
2016-Nov-21 10:32N 09°22' W 079°57'0 0.0
2016-Nov-21 08:31N 09°22' W 079°57'0 0.0
2016-Nov-21 07:33N 09°22' W 079°57'0 0.0
2016-Nov-21 05:32N 09°22' W 079°57'0 0.0
2016-Nov-21 04:28N 09°22' W 079°57'0 0.0
2016-Nov-21 02:32N 09°22' W 079°57'4 1.9
2016-Nov-21 00:33N 09°25' W 079°55'  

Dump ship's entire track history